Vendinga, Russia
Current Conditions -  °F | °C
As of 8:30 AM on Tuesday 21 Oct 2014 (Local Time) from UUYY Reporting Station
Clear Clear  
Wind Chill: -2°   Ceiling: Unl
Heat Index:   Visibility: 6mi
Dew Point:   Wind: 4mph
Humidity: 79%   Direction: 30°NNE
Pressure: 29.85"   Gusts: NA
Location:  63.45°N, 48°E
Report Text: UUYY 210530Z 03002MPS CAVOK M14/M17 Q1011 NOSIG 01CLRD61 RMKQFE749/0999
Loading
Personal Weather Stations






























Interactive Weather Map New forecast layout! Learn more

10-Day Weather Forecast

Advertisements
Track Severe Weather on mobile